createdAt,value
2017-10-28T00:00:28.749Z,13.28
2017-10-28T00:01:39.182Z,13.17
2017-10-28T00:02:49.269Z,13.19
2017-10-28T00:03:59.353Z,13.11
2017-10-28T00:05:09.774Z,13.09
2017-10-28T00:06:20.155Z,13.09
2017-10-28T00:07:30.228Z,12.91
2017-10-28T00:08:39.984Z,12.91
2017-10-28T00:09:50.070Z,12.92
2017-10-28T00:11:00.152Z,12.89
2017-10-28T00:12:10.209Z,12.69
2017-10-28T00:13:20.280Z,12.78
2017-10-28T00:14:30.703Z,12.77
2017-10-28T00:15:41.109Z,12.76
2017-10-28T00:16:51.507Z,12.86
2017-10-28T00:18:01.904Z,12.8
2017-10-28T00:19:11.994Z,12.84
2017-10-28T00:20:22.451Z,12.77
2017-10-28T00:21:32.850Z,12.76
2017-10-28T00:22:43.261Z,12.8
2017-10-28T00:23:53.331Z,12.77
2017-10-28T00:25:03.775Z,12.76
2017-10-28T00:26:14.220Z,12.76
2017-10-28T00:27:24.292Z,12.73
2017-10-28T00:28:34.364Z,12.65
2017-10-28T00:29:44.771Z,12.66
2017-10-28T00:30:55.177Z,12.7
2017-10-28T00:32:05.653Z,12.76
2017-10-28T00:33:16.045Z,12.74
2017-10-28T00:34:26.438Z,12.74
2017-10-28T00:35:36.501Z,12.78
2017-10-28T00:36:47.195Z,12.73
2017-10-28T00:37:57.297Z,12.7
2017-10-28T00:39:07.378Z,12.77
2017-10-28T00:40:17.462Z,12.7
2017-10-28T00:41:27.532Z,12.78
2017-10-28T00:42:37.924Z,12.7
2017-10-28T00:43:48.046Z,12.78
2017-10-28T00:44:58.464Z,12.7
2017-10-28T00:46:08.865Z,12.66
2017-10-28T00:47:18.938Z,12.73
2017-10-28T00:48:29.012Z,12.77
2017-10-28T00:49:39.454Z,12.81
2017-10-28T00:50:49.906Z,12.86
2017-10-28T00:52:00.304Z,12.78
2017-10-28T00:53:10.701Z,12.89
2017-10-28T00:54:21.106Z,12.86
2017-10-28T00:55:31.518Z,12.8
2017-10-28T00:56:41.915Z,12.77
2017-10-28T00:57:52.313Z,12.84
2017-10-28T00:59:02.706Z,12.74
2017-10-28T01:00:13.122Z,12.77
2017-10-28T01:01:23.576Z,12.69
2017-10-28T01:02:33.979Z,12.74
2017-10-28T01:03:44.050Z,12.77
2017-10-28T01:04:54.445Z,12.73
2017-10-28T01:06:04.511Z,12.77
2017-10-28T01:07:14.957Z,12.74
2017-10-28T01:08:24.699Z,12.73
2017-10-28T01:09:34.760Z,12.61
2017-10-28T01:10:45.168Z,12.65
2017-10-28T01:11:55.598Z,12.62
2017-10-28T01:13:05.999Z,12.59
2017-10-28T01:14:16.417Z,12.65
2017-10-28T01:15:26.833Z,12.62
2017-10-28T01:16:36.913Z,12.61
2017-10-28T01:17:47.317Z,12.59
2017-10-28T01:18:57.055Z,12.58
2017-10-28T01:20:07.128Z,12.62
2017-10-28T01:21:17.207Z,12.61
2017-10-28T01:22:27.600Z,12.62
2017-10-28T01:23:38.006Z,12.56
2017-10-28T01:24:48.453Z,12.55
2017-10-28T01:25:58.856Z,12.58
2017-10-28T01:27:08.930Z,12.56
2017-10-28T01:28:19.328Z,12.58
2017-10-28T01:29:29.734Z,12.48
2017-10-28T01:30:40.142Z,12.59
2017-10-28T01:31:50.217Z,12.63
2017-10-28T01:33:00.274Z,12.58
2017-10-28T01:34:10.676Z,12.58
2017-10-28T01:35:21.087Z,12.58
2017-10-28T01:36:30.832Z,12.59
2017-10-28T01:37:41.228Z,12.61
2017-10-28T01:38:51.291Z,12.55
2017-10-28T01:40:01.678Z,12.62
2017-10-28T01:41:12.073Z,12.59
2017-10-28T01:42:22.497Z,12.61
2017-10-28T01:43:32.923Z,12.66
2017-10-28T01:44:43.323Z,12.65
2017-10-28T01:45:53.398Z,12.69
2017-10-28T01:47:03.795Z,12.56
2017-10-28T01:48:14.342Z,12.61
2017-10-28T01:49:24.737Z,12.74
2017-10-28T01:50:35.158Z,12.71
2017-10-28T01:51:44.895Z,12.63
2017-10-28T01:52:55.300Z,12.58
2017-10-28T01:54:05.701Z,12.77
2017-10-28T01:55:16.115Z,12.65
2017-10-28T01:56:26.520Z,12.65
2017-10-28T01:57:36.583Z,12.66
2017-10-28T01:58:46.974Z,12.73
2017-10-28T01:59:57.351Z,12.65
2017-10-28T02:01:07.773Z,12.62
2017-10-28T02:02:18.187Z,12.59
2017-10-28T02:03:28.263Z,12.61
2017-10-28T02:04:38.306Z,12.61
2017-10-28T02:05:48.048Z,12.59
2017-10-28T02:06:58.148Z,12.59
2017-10-28T02:08:08.207Z,12.56
2017-10-28T02:09:18.271Z,12.62
2017-10-28T02:10:29.372Z,12.56
2017-10-28T02:11:39.118Z,12.59
2017-10-28T02:12:49.517Z,12.59
2017-10-28T02:13:59.921Z,12.61
2017-10-28T02:15:09.992Z,12.55
2017-10-28T02:16:20.377Z,12.61
2017-10-28T02:17:30.877Z,12.61
2017-10-28T02:18:41.293Z,12.58
2017-10-28T02:19:51.370Z,12.63
2017-10-28T02:21:01.456Z,12.65
2017-10-28T02:22:11.863Z,12.59
2017-10-28T02:23:22.305Z,12.65
2017-10-28T02:24:32.706Z,12.59
2017-10-28T02:25:43.110Z,12.69
2017-10-28T02:26:53.502Z,12.78
2017-10-28T02:28:03.893Z,12.8
2017-10-28T02:29:14.376Z,12.73
2017-10-28T02:30:24.831Z,12.8
2017-10-28T02:31:34.901Z,12.76
2017-10-28T02:32:45.299Z,12.78
2017-10-28T02:33:55.727Z,12.8
2017-10-28T02:35:06.179Z,12.78
2017-10-28T02:36:16.566Z,12.76
2017-10-28T02:37:26.973Z,12.81
2017-10-28T02:38:37.374Z,12.77
2017-10-28T02:39:47.799Z,12.83
2017-10-28T02:40:58.201Z,12.83
2017-10-28T02:42:08.608Z,12.89
2017-10-28T02:43:18.990Z,12.78
2017-10-28T02:44:29.385Z,12.84
2017-10-28T02:45:39.778Z,12.86
2017-10-28T02:46:50.182Z,12.78
2017-10-28T02:48:00.617Z,12.86
2017-10-28T02:49:11.016Z,12.81
2017-10-28T02:50:21.085Z,12.78
2017-10-28T02:51:30.823Z,12.88
2017-10-28T02:52:41.205Z,12.78
2017-10-28T02:53:51.257Z,12.83
2017-10-28T02:55:01.660Z,12.83
2017-10-28T02:56:12.067Z,12.81
2017-10-28T02:57:22.140Z,12.88
2017-10-28T02:58:32.565Z,12.78
2017-10-28T02:59:42.964Z,12.89
2017-10-28T03:00:53.046Z,12.86
2017-10-28T03:02:03.453Z,12.89
2017-10-28T03:33:22.958Z,10.77
2017-10-28T03:34:33.355Z,10.76
2017-10-28T03:35:43.741Z,10.77
2017-10-28T03:36:54.136Z,10.8
2017-10-28T03:38:04.198Z,10.87
2017-10-28T03:39:14.311Z,10.92
2017-10-28T03:40:24.703Z,11.09
2017-10-28T03:41:35.105Z,11.18
2017-10-28T03:42:45.509Z,11.27
2017-10-28T03:43:55.907Z,11.33
2017-10-28T03:45:06.353Z,11.53
2017-10-28T03:46:16.759Z,11.73
2017-10-28T03:47:27.152Z,11.78
2017-10-28T03:48:37.541Z,11.89
2017-10-28T03:49:47.930Z,12.03
2017-10-28T03:50:58.321Z,12.16
2017-10-28T03:52:08.724Z,12.26
2017-10-28T03:53:19.127Z,12.28
2017-10-28T03:54:29.200Z,12.41
2017-10-28T03:55:39.270Z,12.55
2017-10-28T03:56:49.724Z,12.56
2017-10-28T03:58:00.135Z,12.59
2017-10-28T03:59:10.200Z,12.65
2017-10-28T04:00:20.599Z,12.76
2017-10-28T04:01:30.666Z,12.77
2017-10-28T04:02:40.780Z,12.81
2017-10-28T04:03:50.507Z,12.83
2017-10-28T04:05:00.242Z,12.89
2017-10-28T04:06:10.641Z,12.94
2017-10-28T04:07:20.717Z,13.02
2017-10-28T04:08:31.126Z,13.03
2017-10-28T04:09:41.530Z,12.99
2017-10-28T04:10:51.927Z,13.11
2017-10-28T04:12:01.674Z,13.09
2017-10-28T04:13:12.079Z,13.07
2017-10-28T04:14:22.533Z,13.07
2017-10-28T04:15:32.605Z,13.16
2017-10-28T04:16:42.671Z,13.13
2017-10-28T04:17:52.759Z,13.11
2017-10-28T04:19:02.199Z,13.16
2017-10-28T04:20:12.675Z,13.07
2017-10-28T04:21:23.091Z,13.06
2017-10-28T04:22:33.158Z,13.09
2017-10-28T04:23:43.568Z,13.1
2017-10-28T04:24:53.978Z,13.07
2017-10-28T04:26:04.392Z,13.06
2017-10-28T04:27:14.794Z,13.06
2017-10-28T04:28:25.189Z,13.07
2017-10-28T04:29:35.587Z,13.07
2017-10-28T04:30:46.012Z,13.06
2017-10-28T04:31:56.401Z,13.09
2017-10-28T04:33:06.804Z,13.11
2017-10-28T04:34:17.187Z,13.1
2017-10-28T04:35:27.594Z,13.1
2017-10-28T04:36:37.652Z,13.14
2017-10-28T04:37:48.138Z,13.16
2017-10-28T04:38:58.555Z,13.14
2017-10-28T04:40:08.618Z,13.16
2017-10-28T04:41:18.688Z,13.16
2017-10-28T04:42:28.751Z,13.16
2017-10-28T04:43:38.832Z,13.16
2017-10-28T04:44:48.579Z,13.16
2017-10-28T04:45:58.974Z,13.21
2017-10-28T04:47:09.383Z,13.2
2017-10-28T04:48:19.455Z,13.17
2017-10-28T04:49:29.854Z,13.17
2017-10-28T04:50:40.258Z,13.14
2017-10-28T04:51:49.996Z,13.17
2017-10-28T04:53:00.388Z,13.13
2017-10-28T04:54:10.449Z,13.21
2017-10-28T04:55:20.858Z,13.21
2017-10-28T04:56:30.926Z,13.28
2017-10-28T04:57:41.309Z,13.27
2017-10-28T04:58:51.060Z,13.29
2017-10-28T05:00:01.466Z,13.31
2017-10-28T05:01:11.923Z,13.21
2017-10-28T05:02:22.320Z,13.32
2017-10-28T05:03:32.723Z,13.32
2017-10-28T05:04:43.134Z,13.37
2017-10-28T05:05:53.558Z,13.32
2017-10-28T05:07:03.626Z,13.35
2017-10-28T05:08:14.020Z,13.44
2017-10-28T05:09:24.411Z,13.37
2017-10-28T05:10:34.474Z,13.37
2017-10-28T05:11:44.853Z,13.37
2017-10-28T05:12:55.277Z,13.4
2017-10-28T05:14:05.667Z,13.51
2017-10-28T05:15:16.089Z,13.5
2017-10-28T05:16:26.492Z,13.48
2017-10-28T05:17:36.568Z,13.47
2017-10-28T05:18:46.964Z,13.48
2017-10-28T05:19:57.382Z,13.58
2017-10-28T05:21:07.791Z,13.5
2017-10-28T05:22:18.200Z,13.51
2017-10-28T05:23:28.617Z,13.57
2017-10-28T05:24:39.015Z,13.57
2017-10-28T05:25:49.418Z,13.62
2017-10-28T05:26:59.489Z,13.58
2017-10-28T05:28:09.909Z,13.53
2017-10-28T05:29:20.294Z,13.6
2017-10-28T05:30:30.738Z,13.62
2017-10-28T05:31:41.144Z,13.65
2017-10-28T05:32:51.560Z,13.55
2017-10-28T05:34:01.953Z,13.62
2017-10-28T05:35:12.358Z,13.62
2017-10-28T05:36:22.762Z,13.66
2017-10-28T05:37:32.856Z,13.62
2017-10-28T05:38:43.244Z,13.65
2017-10-28T05:39:53.664Z,13.65
2017-10-28T05:41:03.392Z,13.62
2017-10-28T05:42:13.842Z,13.62
2017-10-28T05:43:24.236Z,13.68
2017-10-28T05:44:34.639Z,13.68
2017-10-28T05:45:44.717Z,13.7
2017-10-28T05:46:54.857Z,13.73
2017-10-28T05:48:05.317Z,13.79
2017-10-28T05:49:15.722Z,13.73
2017-10-28T05:50:26.108Z,13.84
2017-10-28T05:51:36.504Z,13.81
2017-10-28T05:52:46.906Z,13.83
2017-10-28T05:53:57.359Z,13.84
2017-10-28T05:55:07.465Z,13.97
2017-10-28T05:56:17.916Z,13.91
2017-10-28T05:57:28.303Z,13.9
2017-10-28T05:58:38.705Z,13.88
2017-10-28T05:59:48.824Z,13.91
2017-10-28T06:00:58.901Z,13.99
2017-10-28T06:02:09.312Z,13.91
2017-10-28T06:03:19.723Z,13.91
2017-10-28T06:04:30.120Z,13.87
2017-10-28T06:05:39.852Z,13.86
2017-10-28T06:06:49.931Z,13.93
2017-10-28T06:08:00.349Z,13.88
2017-10-28T06:09:10.425Z,13.88
2017-10-28T06:10:20.814Z,13.87
2017-10-28T06:11:31.203Z,13.87
2017-10-28T06:12:41.620Z,13.9
2017-10-28T06:13:52.043Z,13.93
2017-10-28T06:15:02.141Z,13.88
2017-10-28T06:16:12.565Z,13.86
2017-10-28T06:17:23.007Z,13.94
2017-10-28T06:18:33.416Z,13.97
2017-10-28T06:19:43.496Z,14.01
2017-10-28T06:20:53.252Z,13.97
2017-10-28T06:22:03.658Z,14.01
2017-10-28T06:23:13.721Z,14.05
2017-10-28T06:24:24.136Z,14.01
2017-10-28T06:25:34.530Z,14.12
2017-10-28T06:26:44.276Z,14.08
2017-10-28T06:27:54.663Z,14.11
2017-10-28T06:29:04.736Z,14.09
2017-10-28T06:30:14.815Z,14.21
2017-10-28T06:31:25.238Z,14.21
2017-10-28T06:32:35.651Z,14.23
2017-10-28T06:33:46.042Z,14.26
2017-10-28T06:34:56.436Z,14.34
2017-10-28T06:36:06.830Z,14.39
2017-10-28T06:37:17.236Z,14.3
2017-10-28T06:38:26.996Z,14.45
2017-10-28T06:39:37.465Z,14.53
2017-10-28T06:40:47.590Z,14.48
2017-10-28T06:41:57.995Z,14.51
2017-10-28T06:43:08.066Z,14.45
2017-10-28T06:44:18.466Z,14.46
2017-10-28T06:45:28.221Z,14.53
2017-10-28T06:46:38.665Z,14.59
2017-10-28T06:47:49.068Z,14.6
2017-10-28T06:48:59.156Z,14.59
2017-10-28T06:50:08.949Z,14.64
2017-10-28T06:51:19.391Z,14.7
2017-10-28T06:52:29.797Z,14.85
2017-10-28T06:53:39.878Z,14.79
2017-10-28T06:54:50.297Z,14.87
2017-10-28T06:56:00.707Z,15.01
2017-10-28T06:57:11.102Z,15.1
2017-10-28T06:58:21.167Z,15.16
2017-10-28T06:59:32.376Z,15.15
2017-10-28T07:00:42.799Z,15.12
2017-10-28T07:01:53.217Z,15.16
2017-10-28T07:03:03.292Z,15.15
2017-10-28T07:04:13.709Z,15.16
2017-10-28T07:05:24.111Z,15.23
2017-10-28T07:06:34.189Z,15.33
2017-10-28T07:07:44.601Z,15.19
2017-10-28T07:08:54.670Z,15.26
2017-10-28T07:10:04.767Z,15.31
2017-10-28T07:11:15.171Z,15.38
2017-10-28T07:12:25.604Z,15.4
2017-10-28T07:13:36.026Z,15.37
2017-10-28T07:14:46.095Z,15.3
2017-10-28T07:15:56.172Z,15.35
2017-10-28T07:17:06.297Z,15.31
2017-10-28T07:18:16.689Z,15.35
2017-10-28T07:19:26.777Z,15.35
2017-10-28T07:20:37.418Z,15.49
2017-10-28T07:21:48.105Z,15.44
2017-10-28T07:22:59.654Z,15.6
2017-10-28T07:24:10.303Z,15.67
2017-10-28T07:25:20.701Z,15.77
2017-10-28T07:26:31.117Z,15.83
2017-10-28T07:27:41.532Z,15.95
2017-10-28T07:28:51.260Z,16.08
2017-10-28T07:30:01.672Z,16.17
2017-10-28T07:31:11.424Z,16.29
2017-10-28T07:32:21.829Z,16.34
2017-10-28T07:33:32.284Z,16.42
2017-10-28T07:34:41.708Z,16.4
2017-10-28T07:35:51.772Z,16.65
2017-10-28T07:37:01.863Z,16.77
2017-10-28T07:38:12.256Z,16.99
2017-10-28T07:39:22.328Z,17.09
2017-10-28T07:40:32.755Z,17.17
2017-10-28T07:41:43.157Z,17.07
2017-10-28T07:42:53.560Z,17.03
2017-10-28T07:44:03.975Z,17
2017-10-28T07:45:14.428Z,16.99
2017-10-28T07:46:24.514Z,17.09
2017-10-28T07:47:34.925Z,17.22
2017-10-28T07:48:45.052Z,17.31
2017-10-28T07:49:55.470Z,17.47
2017-10-28T07:51:05.936Z,17.52
2017-10-28T07:52:16.405Z,17.66
2017-10-28T07:53:26.811Z,17.62
2017-10-28T07:54:37.225Z,17.55
2017-10-28T07:55:47.602Z,17.43
2017-10-28T07:56:58.054Z,17.28
2017-10-28T07:58:08.452Z,17.22
2017-10-28T07:59:18.847Z,17.1
2017-10-28T08:00:29.261Z,16.97
2017-10-28T08:01:39.689Z,16.9
2017-10-28T08:02:49.492Z,16.84
2017-10-28T08:03:59.244Z,16.8
2017-10-28T08:05:09.674Z,16.72
2017-10-28T08:06:19.782Z,16.8
2017-10-28T08:07:30.174Z,16.88
2017-10-28T08:08:40.599Z,16.91
2017-10-28T08:09:51.003Z,17.12
2017-10-28T08:11:01.078Z,17.22
2017-10-28T08:12:11.485Z,17.35
2017-10-28T08:13:21.896Z,17.57
2017-10-28T08:14:32.319Z,17.76
2017-10-28T08:15:42.398Z,18.02
2017-10-28T08:16:53.321Z,18.14
2017-10-28T08:18:03.736Z,18.51
2017-10-28T08:19:14.169Z,18.63
2017-10-28T08:20:24.313Z,18.56
2017-10-28T08:21:34.389Z,18.57
2017-10-28T08:22:44.843Z,18.53
2017-10-28T08:23:55.193Z,18.45
2017-10-28T08:25:05.592Z,18.53
2017-10-28T08:26:15.337Z,18.41
2017-10-28T08:27:25.742Z,18.32
2017-10-28T08:28:36.151Z,18.35
2017-10-28T08:29:46.582Z,18.27
2017-10-28T08:30:56.994Z,18.44
2017-10-28T08:32:07.468Z,18.5
2017-10-28T08:33:17.569Z,18.45
2017-10-28T08:34:27.649Z,18.27
2017-10-28T08:35:37.402Z,18.2
2017-10-28T08:36:47.829Z,18.1
2017-10-28T08:37:58.240Z,17.95
2017-10-28T08:39:08.655Z,17.77
2017-10-28T08:40:19.078Z,17.9
2017-10-28T08:41:29.141Z,17.9
2017-10-28T08:42:39.546Z,17.9
2017-10-28T08:43:49.962Z,17.66
2017-10-28T08:45:00.372Z,17.32
2017-10-28T08:46:10.449Z,17.05
2017-10-28T08:47:20.543Z,17.05
2017-10-28T08:48:30.946Z,16.99
2017-10-28T08:49:41.398Z,16.99
2017-10-28T08:50:51.798Z,16.9
2017-10-28T08:52:01.891Z,16.84
2017-10-28T08:53:12.306Z,16.81
2017-10-28T08:54:22.730Z,16.76
2017-10-28T08:55:33.206Z,16.74
2017-10-28T08:56:43.632Z,16.67
2017-10-28T08:57:54.056Z,16.65
2017-10-28T08:59:04.126Z,16.73
2017-10-28T09:00:14.538Z,16.72
2017-10-28T09:01:24.691Z,16.81
2017-10-28T09:02:35.106Z,16.81
2017-10-28T09:03:45.523Z,16.85
2017-10-28T09:04:55.593Z,16.81
2017-10-28T09:06:05.986Z,16.73
2017-10-28T09:07:16.139Z,16.67
2017-10-28T09:08:26.530Z,16.59
2017-10-28T09:09:36.608Z,16.44
2017-10-28T09:10:46.688Z,16.44
2017-10-28T09:11:57.085Z,16.39
2017-10-28T09:13:07.489Z,16.3
2017-10-28T09:14:17.915Z,16.22
2017-10-28T09:15:28.005Z,16.26
2017-10-28T09:16:38.071Z,16.26
2017-10-28T09:17:48.134Z,16.27
2017-10-28T09:18:58.590Z,16.36
2017-10-28T09:20:09.017Z,16.48
2017-10-28T09:21:19.419Z,16.36
2017-10-28T09:22:30.678Z,16.49
2017-10-28T09:23:41.082Z,16.49
2017-10-28T09:24:50.880Z,16.58
2017-10-28T09:26:01.226Z,16.54
2017-10-28T09:27:11.344Z,16.57
2017-10-28T09:28:21.785Z,16.44
2017-10-28T09:29:31.525Z,16.52
2017-10-28T09:30:41.956Z,16.58
2017-10-28T09:31:52.365Z,16.74
2017-10-28T09:33:02.768Z,16.9
2017-10-28T09:34:13.174Z,16.97
2017-10-28T09:35:23.560Z,17.12
2017-10-28T09:36:33.982Z,17.17
2017-10-28T09:37:44.384Z,17.3
2017-10-28T09:38:54.482Z,17.35
2017-10-28T09:40:04.559Z,17.32
2017-10-28T09:41:14.636Z,17.42
2017-10-28T09:42:24.718Z,17.42
2017-10-28T09:43:34.783Z,17.43
2017-10-28T09:44:45.195Z,17.46
2017-10-28T09:45:55.852Z,17.49
2017-10-28T09:47:06.260Z,17.5
2017-10-28T09:48:16.338Z,17.46
2017-10-28T09:49:26.768Z,17.45
2017-10-28T09:50:36.853Z,17.49
2017-10-28T09:51:47.279Z,17.63
2017-10-28T09:52:57.687Z,17.73
2017-10-28T09:54:08.156Z,17.83
2017-10-28T09:55:18.231Z,17.87
2017-10-28T09:56:28.313Z,17.79
2017-10-28T09:57:38.058Z,17.77
2017-10-28T09:58:48.468Z,17.76
2017-10-28T09:59:58.958Z,18.03
2017-10-28T10:01:09.385Z,18.19
2017-10-28T10:02:19.810Z,18.16
2017-10-28T10:03:30.258Z,18.23
2017-10-28T10:04:40.679Z,18.19
2017-10-28T10:05:51.136Z,18.08
2017-10-28T10:07:01.189Z,17.84
2017-10-28T10:08:11.260Z,17.69
2017-10-28T10:09:21.655Z,17.52
2017-10-28T10:10:31.738Z,17.43
2017-10-28T10:11:42.163Z,17.24
2017-10-28T10:12:52.576Z,17.36
2017-10-28T10:14:02.993Z,17.45
2017-10-28T10:15:13.420Z,17.49
2017-10-28T10:16:23.843Z,17.73
2017-10-28T10:17:34.323Z,17.77
2017-10-28T10:18:44.745Z,17.9
2017-10-28T10:19:55.167Z,17.88
2017-10-28T10:21:05.263Z,17.69
2017-10-28T10:22:15.376Z,17.65
2017-10-28T10:23:25.832Z,17.46
2017-10-28T10:24:36.265Z,17.43
2017-10-28T10:25:46.336Z,17.42
2017-10-28T10:26:56.767Z,17.47
2017-10-28T10:28:07.200Z,17.42
2017-10-28T10:29:17.331Z,17.31
2017-10-28T10:30:27.739Z,17.12
2017-10-28T10:31:38.144Z,17.09
2017-10-28T10:32:48.551Z,17
2017-10-28T10:33:58.975Z,16.92
2017-10-28T10:35:09.114Z,16.74
2017-10-28T10:36:19.212Z,16.63
2017-10-28T10:37:29.623Z,16.45
2017-10-28T10:38:39.745Z,16.47
2017-10-28T10:39:50.162Z,16.32
2017-10-28T10:41:00.590Z,16.45
2017-10-28T10:42:10.664Z,16.36
2017-10-28T10:43:21.094Z,16.42
2017-10-28T10:44:31.504Z,16.44
2017-10-28T10:45:41.592Z,16.39
2017-10-28T10:46:51.693Z,16.4
2017-10-28T10:48:01.755Z,16.47
2017-10-28T10:49:12.141Z,16.4
2017-10-28T10:50:22.550Z,16.77
2017-10-28T10:51:33.001Z,16.77
2017-10-28T10:52:43.126Z,16.69
2017-10-28T10:53:53.772Z,16.54
2017-10-28T10:55:04.505Z,16.48
2017-10-28T10:56:14.935Z,16.42
2017-10-28T10:57:25.361Z,16.49
2017-10-28T10:58:35.486Z,16.42
2017-10-28T10:59:45.890Z,16.44
2017-10-28T11:00:56.301Z,16.29
2017-10-28T11:02:06.381Z,16.26
2017-10-28T11:03:16.801Z,16.17
2017-10-28T11:04:27.231Z,16.25
2017-10-28T11:05:37.631Z,16.22
2017-10-28T11:06:48.057Z,16.44
2017-10-28T11:07:58.128Z,16.54
2017-10-28T11:09:08.545Z,16.76
2017-10-28T11:10:19.018Z,16.91
2017-10-28T11:11:29.096Z,17
2017-10-28T11:12:39.192Z,16.94
2017-10-28T11:13:49.601Z,16.94
2017-10-28T11:15:00.011Z,16.84
2017-10-28T11:16:09.813Z,16.81
2017-10-28T11:17:20.205Z,16.82
2017-10-28T11:18:30.286Z,16.76
2017-10-28T11:19:40.754Z,16.9
2017-10-28T11:20:50.838Z,16.8
2017-10-28T11:22:01.253Z,16.76
2017-10-28T11:23:11.677Z,16.67
2017-10-28T11:24:22.098Z,16.72
2017-10-28T11:25:32.236Z,16.65
2017-10-28T11:26:42.643Z,16.44
2017-10-28T11:27:52.706Z,16.37
2017-10-28T11:29:03.123Z,16.27
2017-10-28T11:30:13.230Z,16.33
2017-10-28T11:31:23.645Z,16.29
2017-10-28T11:32:34.056Z,16.29
2017-10-28T11:33:44.519Z,16.07
2017-10-28T11:34:54.970Z,16.07
2017-10-28T11:36:05.393Z,16.1
2017-10-28T11:37:15.824Z,16.17
2017-10-28T11:38:25.585Z,16.14
2017-10-28T11:39:35.667Z,16.07
2017-10-28T11:40:45.750Z,16
2017-10-28T11:41:56.197Z,15.93
2017-10-28T11:43:06.641Z,16.02
2017-10-28T11:44:17.052Z,16
2017-10-28T11:45:27.177Z,16.16
2017-10-28T11:46:37.263Z,16.33
2017-10-28T11:47:47.007Z,16.34
2017-10-28T11:48:57.415Z,16.42
2017-10-28T11:50:07.169Z,16.42
2017-10-28T11:51:16.936Z,16.58
2017-10-28T11:52:27.339Z,16.66
2017-10-28T11:53:37.428Z,16.7
2017-10-28T11:54:47.510Z,16.84
2017-10-28T11:55:57.921Z,16.74
2017-10-28T11:57:08.375Z,16.72
2017-10-28T11:58:18.807Z,16.58
2017-10-28T11:59:29.237Z,16.59
2017-10-28T12:00:39.636Z,16.57
2017-10-28T12:01:49.712Z,16.58
2017-10-28T12:03:00.187Z,16.57
2017-10-28T12:04:10.595Z,16.65
2017-10-28T12:05:20.999Z,16.67
2017-10-28T12:06:31.407Z,16.67
2017-10-28T12:07:41.476Z,16.92
2017-10-28T12:08:51.885Z,16.97
2017-10-28T12:10:01.633Z,17.02
2017-10-28T12:11:12.036Z,17.18
2017-10-28T12:12:22.462Z,17.31
2017-10-28T12:13:32.217Z,17.5
2017-10-28T12:14:42.695Z,17.68
2017-10-28T12:15:53.090Z,17.96
2017-10-28T12:17:03.504Z,17.98
2017-10-28T12:18:13.943Z,17.9
2017-10-28T12:19:24.028Z,18.11
2017-10-28T12:20:34.443Z,18.31
2017-10-28T12:21:44.884Z,18.38
2017-10-28T12:22:54.649Z,18.5
2017-10-28T12:24:05.073Z,18.42
2017-10-28T12:25:15.489Z,18.54
2017-10-28T12:26:25.567Z,18.49
2017-10-28T12:27:35.965Z,18.49
2017-10-28T12:28:46.392Z,18.27
2017-10-28T12:29:56.827Z,18.19
2017-10-28T12:31:07.263Z,18.2
2017-10-28T12:32:17.701Z,18.08
2017-10-28T12:33:28.137Z,18.03
2017-10-28T12:34:38.556Z,17.86
2017-10-28T12:35:48.986Z,17.8
2017-10-28T12:36:59.410Z,17.66
2017-10-28T12:38:09.933Z,17.4
2017-10-28T12:39:20.364Z,17.09
2017-10-28T12:40:30.779Z,16.85
2017-10-28T12:41:41.614Z,16.69
2017-10-28T12:42:52.050Z,16.54
2017-10-28T12:44:02.176Z,16.49
2017-10-28T12:45:12.607Z,16.44
2017-10-28T12:46:23.041Z,16.34
2017-10-28T12:47:33.455Z,16.36
2017-10-28T12:48:43.545Z,16.27
2017-10-28T12:49:54.036Z,16.29
2017-10-28T12:51:04.106Z,16.17
2017-10-28T12:52:14.525Z,16.1
2017-10-28T12:53:24.945Z,16.13
2017-10-28T12:54:35.350Z,16.08
2017-10-28T12:55:45.851Z,15.95
2017-10-28T12:56:56.285Z,15.91
2017-10-28T12:58:06.714Z,15.78
2017-10-28T12:59:17.128Z,15.73
2017-10-28T13:00:27.542Z,15.77
2017-10-28T13:01:38.020Z,15.81
2017-10-28T13:02:48.425Z,15.96
2017-10-28T13:03:58.205Z,16.08
2017-10-28T13:05:08.612Z,16.17
2017-10-28T13:06:19.027Z,16.14
2017-10-28T13:07:29.456Z,16.11
2017-10-28T13:08:39.564Z,16.17
2017-10-28T13:09:49.985Z,16.17
2017-10-28T13:11:00.480Z,16.1
2017-10-28T13:12:10.567Z,16.21
2017-10-28T13:13:20.993Z,16.14
2017-10-28T13:14:31.425Z,16.04
2017-10-28T13:15:41.841Z,15.96
2017-10-28T13:16:51.925Z,15.83
2017-10-28T13:18:02.035Z,15.65
2017-10-28T13:19:12.492Z,15.6
2017-10-28T13:20:22.899Z,15.63
2017-10-28T13:21:33.310Z,15.58
2017-10-28T13:22:43.709Z,15.6
2017-10-28T13:23:53.809Z,15.62
2017-10-28T13:25:04.226Z,15.65
2017-10-28T13:26:14.657Z,15.6
2017-10-28T13:27:24.761Z,15.68
2017-10-28T13:28:35.197Z,15.6
2017-10-28T13:29:45.614Z,15.6
2017-10-28T13:30:56.080Z,15.58
2017-10-28T13:32:06.200Z,15.53
2017-10-28T13:33:16.321Z,15.41
2017-10-28T13:34:26.400Z,15.45
2017-10-28T13:35:36.866Z,15.37
2017-10-28T13:36:47.267Z,15.35
2017-10-28T13:37:57.670Z,15.31
2017-10-28T13:39:08.098Z,15.27
2017-10-28T13:40:18.200Z,15.33
2017-10-28T13:41:28.291Z,15.37
2017-10-28T13:42:38.734Z,15.27
2017-10-28T13:43:49.163Z,15.31
2017-10-28T13:44:59.242Z,15.26
2017-10-28T13:46:09.658Z,15.26
2017-10-28T13:47:20.117Z,15.12
2017-10-28T13:48:30.197Z,15.12
2017-10-28T13:49:40.633Z,15.05
2017-10-28T13:50:51.045Z,15.05
2017-10-28T13:52:01.482Z,15.07
2017-10-28T13:53:11.569Z,14.98
2017-10-28T13:54:22.030Z,14.9
2017-10-28T13:55:32.446Z,14.83
2017-10-28T13:56:42.861Z,14.85
2017-10-28T13:57:53.275Z,14.87
2017-10-28T13:59:03.361Z,14.86
2017-10-28T14:00:13.817Z,14.94
2017-10-28T14:01:23.902Z,14.77
2017-10-28T14:02:34.309Z,14.77
2017-10-28T14:03:44.715Z,14.82
2017-10-28T14:04:55.159Z,14.77
2017-10-28T14:06:05.620Z,14.69
2017-10-28T14:07:16.031Z,14.75
2017-10-28T14:08:26.107Z,14.74
2017-10-28T14:09:36.519Z,14.7
2017-10-28T14:10:46.933Z,14.75
2017-10-28T14:11:57.389Z,14.8
2017-10-28T14:13:09.245Z,14.85
2017-10-28T14:14:19.860Z,14.79
2017-10-28T14:15:30.303Z,14.79
2017-10-28T14:16:40.725Z,14.89
2017-10-28T14:17:50.586Z,14.87
2017-10-28T14:19:02.140Z,14.89
2017-10-28T14:20:13.393Z,14.87
2017-10-28T14:21:24.966Z,14.94
2017-10-28T14:22:40.213Z,14.94
2017-10-28T14:23:58.385Z,14.86
2017-10-28T14:25:23.730Z,14.87
2017-10-28T14:26:38.064Z,14.9
2017-10-28T14:28:07.858Z,14.86
2017-10-28T14:29:19.619Z,14.95
2017-10-28T14:30:30.989Z,14.9
2017-10-28T14:31:45.538Z,14.93
2017-10-28T14:32:58.465Z,14.87
2017-10-28T14:34:27.535Z,14.93
2017-10-28T14:35:44.778Z,14.9
2017-10-28T14:37:18.537Z,14.9
2017-10-28T14:38:46.084Z,14.87
2017-10-28T14:40:00.302Z,14.8
2017-10-28T14:41:36.445Z,14.79
2017-10-28T14:42:52.660Z,14.79
2017-10-28T14:44:47.213Z,14.79
2017-10-28T14:48:37.667Z,14.79
2017-10-28T14:49:47.756Z,14.67
2017-10-28T14:50:58.153Z,14.64
2017-10-28T14:52:08.245Z,14.66
2017-10-28T14:53:18.683Z,14.7
2017-10-28T14:54:29.086Z,14.64
2017-10-28T14:55:39.495Z,14.7
2017-10-28T14:56:49.574Z,14.66
2017-10-28T14:57:59.682Z,14.7
2017-10-28T14:59:10.183Z,14.69
2017-10-28T15:00:20.625Z,14.74
2017-10-28T15:01:31.086Z,14.67
2017-10-28T15:02:41.592Z,14.63
2017-10-28T15:03:52.017Z,14.6
2017-10-28T15:05:02.470Z,14.64
2017-10-28T15:06:12.620Z,14.67
2017-10-28T15:07:23.068Z,14.67
2017-10-28T15:08:33.532Z,14.63
2017-10-28T15:09:43.942Z,14.67
2017-10-28T15:10:54.458Z,14.64
2017-10-28T15:12:04.948Z,14.69
2017-10-28T15:13:15.362Z,14.67
2017-10-28T15:14:25.796Z,14.63
2017-10-28T15:15:35.895Z,14.56
2017-10-28T15:16:46.339Z,14.7
2017-10-28T15:17:57.729Z,14.63
2017-10-28T15:19:08.155Z,14.63
2017-10-28T15:20:18.576Z,14.63
2017-10-28T15:21:28.995Z,14.69
2017-10-28T15:22:39.407Z,14.69
2017-10-28T15:23:49.813Z,14.7
2017-10-28T15:25:00.229Z,14.6
2017-10-28T15:26:10.379Z,14.64
2017-10-28T15:27:20.816Z,14.53
2017-10-28T15:28:31.246Z,14.67
2017-10-28T15:29:42.406Z,14.64
2017-10-28T15:30:52.848Z,14.63
2017-10-28T15:32:03.249Z,14.63
2017-10-28T15:33:13.660Z,14.59
2017-10-28T15:34:23.755Z,14.6
2017-10-28T15:35:34.243Z,14.56
2017-10-28T15:36:44.679Z,14.6
2017-10-28T15:37:55.091Z,14.67
2017-10-28T15:39:05.501Z,14.57
2017-10-28T15:40:15.915Z,14.52
2017-10-28T15:41:26.406Z,14.46
2017-10-28T15:42:36.814Z,14.52
2017-10-28T15:43:47.275Z,14.44
2017-10-28T15:44:57.580Z,14.49